GSAJM EGPH-EGPH

Flight info

Callsign GSAJM
Flight time 0h 7m
Altitude 7000
Route VFR CCTS
Aircraft DA42/L-SBDGRY/S

Departure

Time 2026-05-04 18:42
Airport Edinburgh Airport (EGPH)

Arrival

Time 2026-05-04 18:49
Airport Edinburgh Airport (EGPH)
Time Latitude Longitude Altitude Speed Heading
2026-05-04 18:05 55.94837 -3.34396 111 ft 0 kts 282°
2026-05-04 18:13 55.94837 -3.34395 111 ft 0 kts 282°
2026-05-04 18:19 55.94837 -3.34394 111 ft 0 kts 282°
2026-05-04 18:25 55.94837 -3.34393 111 ft 0 kts 282°
2026-05-04 18:31 55.94836 -3.34420 111 ft 8 kts 257°
2026-05-04 18:31 55.94832 -3.34465 111 ft 3 kts 278°
2026-05-04 18:31 55.94837 -3.34514 111 ft 0 kts 277°
2026-05-04 18:32 55.94836 -3.34538 111 ft 2 kts 256°
2026-05-04 18:32 55.94825 -3.34561 111 ft 7 kts 243°
2026-05-04 18:33 55.94798 -3.34602 111 ft 4 kts 196°
2026-05-04 18:33 55.94785 -3.34619 111 ft 2 kts 258°
2026-05-04 18:33 55.94775 -3.34655 111 ft 0 kts 221°
2026-05-04 18:34 55.94774 -3.34656 111 ft 1 kts 220°
2026-05-04 18:34 55.94755 -3.34675 111 ft 6 kts 217°
2026-05-04 18:34 55.94758 -3.34699 111 ft 5 kts 34°
2026-05-04 18:35 55.94774 -3.34714 111 ft 11 kts 243°
2026-05-04 18:35 55.94780 -3.34831 111 ft 10 kts 301°
2026-05-04 18:35 55.94808 -3.34924 111 ft 11 kts 312°
2026-05-04 18:35 55.94865 -3.35088 111 ft 15 kts 298°
2026-05-04 18:36 55.94918 -3.35257 111 ft 19 kts 298°
2026-05-04 18:36 55.94983 -3.35472 111 ft 17 kts 297°
2026-05-04 18:36 55.95039 -3.35640 111 ft 15 kts 298°
2026-05-04 18:36 55.95051 -3.35803 111 ft 14 kts 258°
2026-05-04 18:37 55.95082 -3.35958 111 ft 13 kts 301°
2026-05-04 18:37 55.95114 -3.36106 111 ft 12 kts 287°
2026-05-04 18:37 55.95138 -3.36251 110 ft 12 kts 290°
2026-05-04 18:37 55.95181 -3.36342 110 ft 4 kts 321°
2026-05-04 18:38 55.95182 -3.36344 110 ft 0 kts 321°
2026-05-04 18:40 55.95240 -3.36421 106 ft 17 kts 318°
2026-05-04 18:41 55.95222 -3.36596 107 ft 31 kts 239°
2026-05-04 18:41 55.95016 -3.37199 120 ft 74 kts 243°
2026-05-04 18:41 55.94749 -3.37978 358 ft 74 kts 245°
2026-05-04 18:41 55.94476 -3.38785 570 ft 78 kts 244°
2026-05-04 18:42 55.94193 -3.39571 898 ft 75 kts 240°
2026-05-04 18:42 55.93941 -3.40381 1188 ft 74 kts 263°
2026-05-04 18:42 55.94180 -3.41129 1465 ft 80 kts 325°
2026-05-04 18:42 55.94747 -3.41507 1670 ft 92 kts 334°
2026-05-04 18:43 55.95406 -3.41373 1889 ft 107 kts 17°
2026-05-04 18:43 55.96049 -3.40536 2024 ft 117 kts 22°
2026-05-04 18:43 55.96843 -3.40337 2000 ft 124 kts 345°
2026-05-04 18:43 55.97722 -3.40593 1917 ft 132 kts 342°
2026-05-04 18:44 55.98635 -3.40894 1895 ft 136 kts 353°
2026-05-04 18:44 55.99236 -3.40554 1946 ft 144 kts 30°
2026-05-04 18:44 55.99841 -3.38347 2035 ft 145 kts 81°
2026-05-04 18:44 55.99886 -3.36487 2000 ft 154 kts 85°
2026-05-04 18:45 55.99942 -3.34552 2007 ft 157 kts 88°
2026-05-04 18:45 55.99786 -3.32635 1965 ft 160 kts 94°
2026-05-04 18:45 55.99844 -3.30582 1863 ft 160 kts 84°
2026-05-04 18:45 55.99929 -3.28629 1846 ft 155 kts 90°
2026-05-04 18:46 55.99555 -3.26973 1915 ft 141 kts 138°
2026-05-04 18:46 55.98726 -3.26334 1913 ft 126 kts 188°
2026-05-04 18:46 55.98012 -3.26895 1857 ft 106 kts 238°
2026-05-04 18:46 55.97721 -3.28111 1602 ft 106 kts 255°
2026-05-04 18:47 55.97489 -3.29358 1507 ft 101 kts 252°
2026-05-04 18:47 55.97237 -3.30440 1346 ft 88 kts 248°
2026-05-04 18:47 55.96945 -3.31368 1013 ft 86 kts 243°
2026-05-04 18:47 55.96664 -3.32233 802 ft 75 kts 244°
2026-05-04 18:48 55.96399 -3.33030 624 ft 72 kts 245°
2026-05-04 18:48 55.96144 -3.33773 448 ft 68 kts 250°
2026-05-04 18:48 55.95916 -3.34523 333 ft 70 kts 243°
2026-05-04 18:48 55.95668 -3.35262 226 ft 68 kts 245°
2026-05-04 18:49 55.95434 -3.35969 146 ft 65 kts 245°
2026-05-04 18:49 55.95233 -3.36587 107 ft 49 kts 239°
2026-05-04 18:49 55.94989 -3.37237 164 ft 73 kts 244°
2026-05-04 18:49 55.94701 -3.38045 353 ft 79 kts 242°
2026-05-04 18:50 55.94399 -3.38865 453 ft 81 kts 241°
2026-05-04 18:50 55.94103 -3.39712 693 ft 79 kts 243°
2026-05-04 18:50 55.94098 -3.40637 951 ft 80 kts 295°
2026-05-04 18:50 55.94509 -3.41350 1233 ft 90 kts 317°
2026-05-04 18:51 55.95093 -3.41972 1404 ft 107 kts 339°
2026-05-04 18:51 55.95868 -3.41745 1623 ft 127 kts 22°
2026-05-04 18:51 55.96432 -3.40474 1840 ft 135 kts 63°
2026-05-04 18:51 55.96817 -3.38906 1872 ft 141 kts 60°
2026-05-04 18:52 55.97255 -3.37300 1863 ft 145 kts 59°
2026-05-04 18:52 55.97733 -3.35630 1761 ft 155 kts 59°
2026-05-04 18:52 55.98218 -3.33934 1804 ft 150 kts 56°
2026-05-04 18:52 55.98676 -3.32315 1721 ft 143 kts 68°
2026-05-04 18:53 55.98690 -3.30632 1625 ft 136 kts 113°
2026-05-04 18:53 55.98097 -3.29458 1580 ft 121 kts 158°
2026-05-04 18:53 55.97397 -3.29252 1598 ft 89 kts 206°
2026-05-04 18:53 55.97029 -3.29989 1350 ft 83 kts 256°
2026-05-04 18:54 55.96888 -3.31023 1069 ft 87 kts 259°
2026-05-04 18:54 55.96720 -3.32054 798 ft 86 kts 252°
2026-05-04 18:54 55.96444 -3.32978 590 ft 85 kts 244°
2026-05-04 18:54 55.96155 -3.33783 432 ft 72 kts 247°
2026-05-04 18:55 55.95907 -3.34542 326 ft 69 kts 245°
2026-05-04 18:55 55.95444 -3.35937 116 ft 61 kts 243°
2026-05-04 18:55 55.95227 -3.36576 118 ft 74 kts 240°
2026-05-04 18:56 55.94930 -3.37355 347 ft 81 kts 241°
2026-05-04 18:56 55.94608 -3.38272 497 ft 95 kts 242°
2026-05-04 18:56 55.94266 -3.39299 729 ft 97 kts 251°
2026-05-04 18:56 55.94354 -3.40415 1058 ft 99 kts 309°
2026-05-04 18:57 55.95044 -3.40786 1287 ft 116 kts 360°
2026-05-04 18:57 55.95815 -3.40240 1561 ft 123 kts 25°
2026-05-04 18:57 55.96434 -3.39040 1733 ft 140 kts 57°
2026-05-04 18:57 55.96879 -3.37395 1756 ft 153 kts 60°
2026-05-04 18:58 55.97393 -3.35659 1768 ft 160 kts 55°
2026-05-04 18:58 55.97970 -3.33959 1843 ft 159 kts 52°
2026-05-04 18:58 55.98490 -3.32221 1927 ft 162 kts 66°
2026-05-04 18:58 55.98934 -3.30299 1871 ft 163 kts 58°
2026-05-04 18:59 55.99712 -3.29080 1784 ft 144 kts
2026-05-04 18:59 56.00601 -3.29343 1670 ft 127 kts 316°
2026-05-04 18:59 56.00892 -3.30726 1491 ft 124 kts 260°
2026-05-04 18:59 56.00306 -3.31755 1448 ft 133 kts 198°
2026-05-04 19:00 55.99455 -3.31112 1439 ft 142 kts 127°
2026-05-04 19:00 55.99326 -3.29982 1396 ft 144 kts 74°
2026-05-04 19:00 55.99965 -3.28959 1368 ft 122 kts 351°
2026-05-04 19:00 56.00498 -3.29796 1329 ft 107 kts 271°
2026-05-04 19:01 55.99698 -3.30634 1226 ft 128 kts 176°
2026-05-04 19:01 55.99149 -3.30255 1206 ft 125 kts 156°
2026-05-04 19:01 55.98337 -3.29102 1240 ft 97 kts 158°
2026-05-04 19:01 55.97935 -3.29020 1198 ft 85 kts 209°
2026-05-04 19:02 55.97529 -3.29737 1060 ft 77 kts 242°
2026-05-04 19:02 55.97239 -3.30550 936 ft 77 kts 242°
2026-05-04 19:02 55.96952 -3.31473 802 ft 97 kts 241°
2026-05-04 19:02 55.96595 -3.32499 725 ft 92 kts 242°
2026-05-04 19:03 55.96273 -3.33430 568 ft 87 kts 244°
2026-05-04 19:03 55.95984 -3.34287 405 ft 74 kts 248°
2026-05-04 19:03 55.95739 -3.35059 228 ft 71 kts 244°
2026-05-04 19:03 55.95500 -3.35756 110 ft 56 kts 244°
2026-05-04 19:04 55.95351 -3.36220 104 ft 34 kts 240°
2026-05-04 19:04 55.95268 -3.36410 106 ft 16 kts 188°
2026-05-04 19:04 55.95173 -3.36331 110 ft 11 kts 144°
2026-05-04 19:04 55.95129 -3.36195 110 ft 16 kts 108°
2026-05-04 19:05 55.95086 -3.35973 111 ft 21 kts 115°
2026-05-04 19:05 55.95053 -3.35782 111 ft 16 kts 72°
2026-05-04 19:05 55.95017 -3.35573 111 ft 21 kts 124°
2026-05-04 19:05 55.94941 -3.35319 111 ft 25 kts 115°
2026-05-04 19:06 55.94852 -3.35038 111 ft 27 kts 119°
2026-05-04 19:06 55.94774 -3.34796 111 ft 15 kts 128°
2026-05-04 19:06 55.94725 -3.34682 111 ft 8 kts 157°
2026-05-04 19:06 55.94720 -3.34680 111 ft 0 kts 195°